Airfield :
LOGIN :

Register | Disclaimer

   EN    FR    IT 

 










Legend :    VFR   Marginal VFR   IFR   Intensive IFR   Very Intensive IFR
Visi :
Ceiling :
>= 8 km
>= 3000ft
5 to 8 km
1000 to 3000 ft
1500m to 5 km
500 to 1000 ft
800 to 1500m
200 to 500 ft
< 800m
< 200 ft
Symbols :   Thunderstorms  Fog  Heavy snow  Heavy precipitations  Wind > 20 kt
SIGMETs :     Misc.  Thunderstorms  Icing  Turbulence  Mountain Waves  Volcanic Ashes






- Airport Elevation : 502 ft
- IATA code : ORK


EICK - Cork

CURRENT METAR :
  • 271130Z 31012KT 9999 FEW020 06/M00 Q1009 NOSIG

EXPIRED METARs :
  • 271100Z 30011KT 9999 FEW020 06/00 Q1009 NOSIG
  • 271030Z 29009KT 9999 FEW018 05/01 Q1008 NOSIG
  • 271000Z 31009KT 280V340 9999 FEW010 04/00 Q1007 NOSIG
  • 270930Z 30007KT 9999 FEW018 03/01 Q1007 NOSIG
  • 270900Z 31009KT 9999 FEW009 03/00 Q1006 NOSIG

TAF TAF EICK
Valid from the 27 at 12:00 until the 28 at 12:00 UTC


271100Z 2712/2812 31010KT 9999 FEW018
BECMG 2713/2715 28008KT
BECMG 2716/2719 22005KT
BECMG 2720/2722 18011KT BKN015
BECMG 2801/2804 16015G25KT 6000 -RA SCT003 BKN008
TEMPO 2803/2812 2500 -RADZ BKN003
PROB40
TEMPO 2805/2812 0800 RADZ FG BKN002
BECMG 2807/2809 21018G29KT



MET'MAP, your aeronautical weather chart ! - Copyright ORBIFLY December 2007 - Disclaimer

ORBIFLY MET'MAP TEAM :

Programming & Development : Alexandra Zaïnal
Concept & original design : Baudouin d'Aumeries
Assistance for programming : Marc-Olivier Méhu
Technical & hardware support : Manuel Goepfert

Contact : metmap@orbifly.com




SOURCES & CREDITS :

   NOAA